sensor_id;sensor_type;location;lat;lon;timestamp;pressure;altitude;pressure_sealevel;temperature
69590;BMP180;56792;50.644;17.984;2023-08-31T00:00:53;98899.00;;;15.10
69590;BMP180;56792;50.644;17.984;2023-08-31T00:03:24;98898.40;;;15.10
69590;BMP180;56792;50.644;17.984;2023-08-31T00:05:55;98902.60;;;15.10
69590;BMP180;56792;50.644;17.984;2023-08-31T00:08:26;98907.40;;;15.10
69590;BMP180;56792;50.644;17.984;2023-08-31T00:11:02;98906.80;;;15.10
69590;BMP180;56792;50.644;17.984;2023-08-31T00:13:33;98906.60;;;15.00
69590;BMP180;56792;50.644;17.984;2023-08-31T00:16:04;98905.20;;;15.00
69590;BMP180;56792;50.644;17.984;2023-08-31T00:18:35;98903.80;;;15.00
69590;BMP180;56792;50.644;17.984;2023-08-31T00:21:06;98906.40;;;15.00
69590;BMP180;56792;50.644;17.984;2023-08-31T00:23:38;98908.20;;;15.00
69590;BMP180;56792;50.644;17.984;2023-08-31T00:26:09;98908.20;;;15.00
69590;BMP180;56792;50.644;17.984;2023-08-31T00:28:40;98906.20;;;14.98
69590;BMP180;56792;50.644;17.984;2023-08-31T00:31:12;98907.80;;;14.92
69590;BMP180;56792;50.644;17.984;2023-08-31T00:33:43;98915.20;;;14.90
69590;BMP180;56792;50.644;17.984;2023-08-31T00:36:15;98918.00;;;14.90
69590;BMP180;56792;50.644;17.984;2023-08-31T00:38:48;98920.60;;;14.90
69590;BMP180;56792;50.644;17.984;2023-08-31T00:41:19;98916.40;;;14.90
69590;BMP180;56792;50.644;17.984;2023-08-31T00:43:50;98915.20;;;14.90
69590;BMP180;56792;50.644;17.984;2023-08-31T00:46:23;98912.40;;;14.90
69590;BMP180;56792;50.644;17.984;2023-08-31T00:48:54;98917.00;;;14.90
69590;BMP180;56792;50.644;17.984;2023-08-31T00:51:26;98918.20;;;14.82
69590;BMP180;56792;50.644;17.984;2023-08-31T00:53:57;98919.80;;;14.80
69590;BMP180;56792;50.644;17.984;2023-08-31T00:56:30;98920.80;;;14.80
69590;BMP180;56792;50.644;17.984;2023-08-31T00:59:01;98918.60;;;14.80
69590;BMP180;56792;50.644;17.984;2023-08-31T01:01:43;98922.00;;;14.80
69590;BMP180;56792;50.644;17.984;2023-08-31T01:04:25;98925.60;;;14.80
69590;BMP180;56792;50.644;17.984;2023-08-31T01:07:07;98921.00;;;14.80
69590;BMP180;56792;50.644;17.984;2023-08-31T01:09:50;98921.00;;;14.80
69590;BMP180;56792;50.644;17.984;2023-08-31T01:12:36;98912.60;;;14.80
69590;BMP180;56792;50.644;17.984;2023-08-31T01:15:13;98913.80;;;14.84
69590;BMP180;56792;50.644;17.984;2023-08-31T01:17:50;98911.80;;;14.84
69590;BMP180;56792;50.644;17.984;2023-08-31T01:20:28;98909.40;;;14.80
69590;BMP180;56792;50.644;17.984;2023-08-31T01:23:10;98913.80;;;14.80
69590;BMP180;56792;50.644;17.984;2023-08-31T01:25:44;98912.40;;;14.80
69590;BMP180;56792;50.644;17.984;2023-08-31T01:28:16;98912.40;;;14.80
69590;BMP180;56792;50.644;17.984;2023-08-31T01:30:47;98907.40;;;14.80
69590;BMP180;56792;50.644;17.984;2023-08-31T01:33:18;98909.20;;;14.76
69590;BMP180;56792;50.644;17.984;2023-08-31T01:35:55;98909.60;;;14.80
69590;BMP180;56792;50.644;17.984;2023-08-31T01:38:29;98911.80;;;14.70
69590;BMP180;56792;50.644;17.984;2023-08-31T01:41:07;98903.60;;;14.70
69590;BMP180;56792;50.644;17.984;2023-08-31T01:43:41;98909.80;;;14.60
69590;BMP180;56792;50.644;17.984;2023-08-31T01:46:14;98909.80;;;14.60
69590;BMP180;56792;50.644;17.984;2023-08-31T01:48:46;98911.40;;;14.60
69590;BMP180;56792;50.644;17.984;2023-08-31T01:51:18;98905.00;;;14.50
69590;BMP180;56792;50.644;17.984;2023-08-31T01:53:49;98908.00;;;14.50
69590;BMP180;56792;50.644;17.984;2023-08-31T01:56:21;98915.20;;;14.50
69590;BMP180;56792;50.644;17.984;2023-08-31T01:58:52;98916.80;;;14.40
69590;BMP180;56792;50.644;17.984;2023-08-31T02:01:23;98918.00;;;14.40
69590;BMP180;56792;50.644;17.984;2023-08-31T02:03:54;98918.80;;;14.40
69590;BMP180;56792;50.644;17.984;2023-08-31T02:06:25;98918.00;;;14.40
69590;BMP180;56792;50.644;17.984;2023-08-31T02:08:56;98919.40;;;14.40
69590;BMP180;56792;50.644;17.984;2023-08-31T02:11:28;98922.00;;;14.30
69590;BMP180;56792;50.644;17.984;2023-08-31T02:13:59;98920.60;;;14.32
69590;BMP180;56792;50.644;17.984;2023-08-31T02:16:30;98919.40;;;14.36
69590;BMP180;56792;50.644;17.984;2023-08-31T02:19:01;98921.80;;;14.40
69590;BMP180;56792;50.644;17.984;2023-08-31T02:21:32;98923.60;;;14.40
69590;BMP180;56792;50.644;17.984;2023-08-31T02:24:04;98927.40;;;14.40
69590;BMP180;56792;50.644;17.984;2023-08-31T02:26:36;98928.40;;;14.40
69590;BMP180;56792;50.644;17.984;2023-08-31T02:29:08;98932.20;;;14.40
69590;BMP180;56792;50.644;17.984;2023-08-31T02:31:39;98935.60;;;14.40
69590;BMP180;56792;50.644;17.984;2023-08-31T02:34:11;98935.00;;;14.40
69590;BMP180;56792;50.644;17.984;2023-08-31T02:36:42;98929.60;;;14.40
69590;BMP180;56792;50.644;17.984;2023-08-31T02:39:13;98929.20;;;14.40
69590;BMP180;56792;50.644;17.984;2023-08-31T02:41:45;98927.80;;;14.38
69590;BMP180;56792;50.644;17.984;2023-08-31T02:44:16;98927.80;;;14.40
69590;BMP180;56792;50.644;17.984;2023-08-31T02:46:47;98923.60;;;14.40
69590;BMP180;56792;50.644;17.984;2023-08-31T02:49:18;98921.60;;;14.40
69590;BMP180;56792;50.644;17.984;2023-08-31T02:51:49;98924.60;;;14.30
69590;BMP180;56792;50.644;17.984;2023-08-31T02:54:20;98916.20;;;14.30
69590;BMP180;56792;50.644;17.984;2023-08-31T02:56:51;98924.20;;;14.30
69590;BMP180;56792;50.644;17.984;2023-08-31T02:59:22;98923.20;;;14.30
69590;BMP180;56792;50.644;17.984;2023-08-31T03:01:53;98922.80;;;14.30
69590;BMP180;56792;50.644;17.984;2023-08-31T03:04:24;98923.60;;;14.20
69590;BMP180;56792;50.644;17.984;2023-08-31T03:06:56;98925.80;;;14.20
69590;BMP180;56792;50.644;17.984;2023-08-31T03:09:28;98923.40;;;14.20
69590;BMP180;56792;50.644;17.984;2023-08-31T03:11:59;98926.60;;;14.10
69590;BMP180;56792;50.644;17.984;2023-08-31T03:14:30;98928.20;;;14.10
69590;BMP180;56792;50.644;17.984;2023-08-31T03:17:01;98928.80;;;14.10
69590;BMP180;56792;50.644;17.984;2023-08-31T03:19:32;98932.80;;;14.10
69590;BMP180;56792;50.644;17.984;2023-08-31T03:22:04;98933.40;;;14.00
69590;BMP180;56792;50.644;17.984;2023-08-31T03:24:35;98940.00;;;14.00
69590;BMP180;56792;50.644;17.984;2023-08-31T03:27:07;98937.60;;;13.90
69590;BMP180;56792;50.644;17.984;2023-08-31T03:29:38;98941.20;;;13.90
69590;BMP180;56792;50.644;17.984;2023-08-31T03:32:10;98938.00;;;13.82
69590;BMP180;56792;50.644;17.984;2023-08-31T03:34:41;98935.00;;;13.80
69590;BMP180;56792;50.644;17.984;2023-08-31T03:37:13;98931.40;;;13.80
69590;BMP180;56792;50.644;17.984;2023-08-31T03:39:44;98933.80;;;13.80
69590;BMP180;56792;50.644;17.984;2023-08-31T03:42:17;98929.00;;;13.76
69590;BMP180;56792;50.644;17.984;2023-08-31T03:44:48;98932.40;;;13.70
69590;BMP180;56792;50.644;17.984;2023-08-31T03:47:20;98937.00;;;13.70
69590;BMP180;56792;50.644;17.984;2023-08-31T03:49:51;98935.00;;;13.70
69590;BMP180;56792;50.644;17.984;2023-08-31T03:52:22;98936.80;;;13.70
69590;BMP180;56792;50.644;17.984;2023-08-31T03:54:54;98934.60;;;13.70
69590;BMP180;56792;50.644;17.984;2023-08-31T03:57:25;98935.20;;;13.70
69590;BMP180;56792;50.644;17.984;2023-08-31T03:59:59;98933.00;;;13.70
69590;BMP180;56792;50.644;17.984;2023-08-31T04:02:31;98929.80;;;13.70
69590;BMP180;56792;50.644;17.984;2023-08-31T04:05:02;98932.00;;;13.70
69590;BMP180;56792;50.644;17.984;2023-08-31T04:07:35;98934.60;;;13.70
69590;BMP180;56792;50.644;17.984;2023-08-31T04:10:08;98933.40;;;13.70
69590;BMP180;56792;50.644;17.984;2023-08-31T04:12:39;98934.20;;;13.70
69590;BMP180;56792;50.644;17.984;2023-08-31T04:15:13;98932.00;;;13.70
69590;BMP180;56792;50.644;17.984;2023-08-31T04:17:44;98932.40;;;13.70
69590;BMP180;56792;50.644;17.984;2023-08-31T04:20:15;98935.80;;;13.80
69590;BMP180;56792;50.644;17.984;2023-08-31T04:22:46;98940.00;;;13.80
69590;BMP180;56792;50.644;17.984;2023-08-31T04:25:17;98940.60;;;13.80
69590;BMP180;56792;50.644;17.984;2023-08-31T04:27:49;98944.00;;;13.80
69590;BMP180;56792;50.644;17.984;2023-08-31T04:30:20;98940.40;;;13.86
69590;BMP180;56792;50.644;17.984;2023-08-31T04:32:51;98939.00;;;13.90
69590;BMP180;56792;50.644;17.984;2023-08-31T04:35:22;98945.00;;;13.90
69590;BMP180;56792;50.644;17.984;2023-08-31T04:37:53;98948.20;;;13.90
69590;BMP180;56792;50.644;17.984;2023-08-31T04:40:24;98949.80;;;13.90
69590;BMP180;56792;50.644;17.984;2023-08-31T04:42:56;98951.20;;;13.90
69590;BMP180;56792;50.644;17.984;2023-08-31T04:45:27;98953.00;;;13.90
69590;BMP180;56792;50.644;17.984;2023-08-31T04:47:58;98958.20;;;13.92
69590;BMP180;56792;50.644;17.984;2023-08-31T04:50:29;98957.60;;;13.90
69590;BMP180;56792;50.644;17.984;2023-08-31T04:53:00;98959.60;;;14.00
69590;BMP180;56792;50.644;17.984;2023-08-31T04:55:31;98959.00;;;14.00
69590;BMP180;56792;50.644;17.984;2023-08-31T04:58:02;98956.20;;;14.10
69590;BMP180;56792;50.644;17.984;2023-08-31T05:00:34;98957.80;;;14.10
69590;BMP180;56792;50.644;17.984;2023-08-31T05:03:05;98962.00;;;14.18
69590;BMP180;56792;50.644;17.984;2023-08-31T05:05:36;98961.80;;;14.20
69590;BMP180;56792;50.644;17.984;2023-08-31T05:08:09;98968.20;;;14.30
69590;BMP180;56792;50.644;17.984;2023-08-31T05:10:40;98968.20;;;14.40
69590;BMP180;56792;50.644;17.984;2023-08-31T05:13:11;98965.40;;;14.50
69590;BMP180;56792;50.644;17.984;2023-08-31T05:15:42;98962.40;;;14.60
69590;BMP180;56792;50.644;17.984;2023-08-31T05:18:13;98955.80;;;14.70
69590;BMP180;56792;50.644;17.984;2023-08-31T05:20:48;98964.00;;;14.74
69590;BMP180;56792;50.644;17.984;2023-08-31T05:23:19;98964.20;;;14.82
69590;BMP180;56792;50.644;17.984;2023-08-31T05:25:50;98962.40;;;14.90
69590;BMP180;56792;50.644;17.984;2023-08-31T05:28:21;98963.80;;;15.00
69590;BMP180;56792;50.644;17.984;2023-08-31T05:30:54;98964.20;;;14.94
69590;BMP180;56792;50.644;17.984;2023-08-31T05:33:27;98959.60;;;15.00
69590;BMP180;56792;50.644;17.984;2023-08-31T05:35:59;98962.00;;;15.00
69590;BMP180;56792;50.644;17.984;2023-08-31T05:38:31;98971.20;;;15.00
69590;BMP180;56792;50.644;17.984;2023-08-31T05:41:09;98969.80;;;15.00
69590;BMP180;56792;50.644;17.984;2023-08-31T05:43:41;98977.80;;;15.10
69590;BMP180;56792;50.644;17.984;2023-08-31T05:46:12;98981.80;;;15.10
69590;BMP180;56792;50.644;17.984;2023-08-31T05:48:43;98979.20;;;15.20
69590;BMP180;56792;50.644;17.984;2023-08-31T05:51:14;98984.80;;;15.20
69590;BMP180;56792;50.644;17.984;2023-08-31T05:53:45;98988.20;;;15.30
69590;BMP180;56792;50.644;17.984;2023-08-31T05:56:16;98986.80;;;15.30
69590;BMP180;56792;50.644;17.984;2023-08-31T05:58:47;98987.20;;;15.40
69590;BMP180;56792;50.644;17.984;2023-08-31T06:01:20;98984.00;;;15.50
69590;BMP180;56792;50.644;17.984;2023-08-31T06:03:51;98983.00;;;15.50
69590;BMP180;56792;50.644;17.984;2023-08-31T06:06:22;98985.20;;;15.60
69590;BMP180;56792;50.644;17.984;2023-08-31T06:08:53;98984.40;;;15.62
69590;BMP180;56792;50.644;17.984;2023-08-31T06:11:24;98984.40;;;15.70
69590;BMP180;56792;50.644;17.984;2023-08-31T06:13:55;98985.80;;;15.80
69590;BMP180;56792;50.644;17.984;2023-08-31T06:16:29;98990.60;;;15.90
69590;BMP180;56792;50.644;17.984;2023-08-31T06:19:00;98987.00;;;16.00
69590;BMP180;56792;50.644;17.984;2023-08-31T06:21:31;98998.00;;;16.00
69590;BMP180;56792;50.644;17.984;2023-08-31T06:24:02;99001.00;;;16.12
69590;BMP180;56792;50.644;17.984;2023-08-31T06:26:33;98997.60;;;16.20
69590;BMP180;56792;50.644;17.984;2023-08-31T06:29:04;98999.60;;;16.20
69590;BMP180;56792;50.644;17.984;2023-08-31T06:31:37;99003.40;;;16.30
69590;BMP180;56792;50.644;17.984;2023-08-31T06:34:08;99002.40;;;16.40
69590;BMP180;56792;50.644;17.984;2023-08-31T06:36:39;99003.80;;;16.60
69590;BMP180;56792;50.644;17.984;2023-08-31T06:39:10;99009.80;;;16.70
69590;BMP180;56792;50.644;17.984;2023-08-31T06:41:41;99009.60;;;16.70
69590;BMP180;56792;50.644;17.984;2023-08-31T06:44:12;99014.00;;;16.66
69590;BMP180;56792;50.644;17.984;2023-08-31T06:46:43;99016.60;;;16.70
69590;BMP180;56792;50.644;17.984;2023-08-31T06:49:14;99016.40;;;16.80
69590;BMP180;56792;50.644;17.984;2023-08-31T06:51:46;99018.60;;;16.90
69590;BMP180;56792;50.644;17.984;2023-08-31T06:54:17;99018.60;;;17.06
69590;BMP180;56792;50.644;17.984;2023-08-31T06:56:48;99018.20;;;17.16
69590;BMP180;56792;50.644;17.984;2023-08-31T06:59:19;99019.20;;;17.30
69590;BMP180;56792;50.644;17.984;2023-08-31T07:01:50;99021.60;;;17.60
69590;BMP180;56792;50.644;17.984;2023-08-31T07:04:21;99018.00;;;17.90
69590;BMP180;56792;50.644;17.984;2023-08-31T07:06:52;99022.80;;;18.12
69590;BMP180;56792;50.644;17.984;2023-08-31T07:09:23;99025.80;;;18.30
69590;BMP180;56792;50.644;17.984;2023-08-31T07:11:56;99030.40;;;18.40
69590;BMP180;56792;50.644;17.984;2023-08-31T07:14:28;99036.80;;;18.60
69590;BMP180;56792;50.644;17.984;2023-08-31T07:16:59;99031.60;;;18.80
69590;BMP180;56792;50.644;17.984;2023-08-31T07:19:30;99038.40;;;19.00
69590;BMP180;56792;50.644;17.984;2023-08-31T07:22:01;99035.60;;;19.22
69590;BMP180;56792;50.644;17.984;2023-08-31T07:24:33;99038.60;;;19.30
69590;BMP180;56792;50.644;17.984;2023-08-31T07:27:06;99042.80;;;19.40
69590;BMP180;56792;50.644;17.984;2023-08-31T07:29:37;99045.80;;;19.50
69590;BMP180;56792;50.644;17.984;2023-08-31T07:32:08;99046.40;;;19.70
69590;BMP180;56792;50.644;17.984;2023-08-31T07:34:39;99050.20;;;19.90
69590;BMP180;56792;50.644;17.984;2023-08-31T07:37:10;99054.20;;;20.00
69590;BMP180;56792;50.644;17.984;2023-08-31T07:39:41;99052.80;;;20.10
69590;BMP180;56792;50.644;17.984;2023-08-31T07:42:12;99050.00;;;20.20
69590;BMP180;56792;50.644;17.984;2023-08-31T07:44:43;99053.00;;;20.40
69590;BMP180;56792;50.644;17.984;2023-08-31T07:47:14;99058.40;;;20.56
69590;BMP180;56792;50.644;17.984;2023-08-31T07:49:45;99063.40;;;20.62
69590;BMP180;56792;50.644;17.984;2023-08-31T07:52:16;99068.40;;;20.76
69590;BMP180;56792;50.644;17.984;2023-08-31T07:54:47;99067.80;;;20.90
69590;BMP180;56792;50.644;17.984;2023-08-31T07:57:18;99071.40;;;21.10
69590;BMP180;56792;50.644;17.984;2023-08-31T07:59:49;99073.00;;;21.30
69590;BMP180;56792;50.644;17.984;2023-08-31T08:02:20;99072.80;;;21.58
69590;BMP180;56792;50.644;17.984;2023-08-31T08:04:51;99070.20;;;21.90
69590;BMP180;56792;50.644;17.984;2023-08-31T08:07:22;99079.60;;;22.00
69590;BMP180;56792;50.644;17.984;2023-08-31T08:09:54;99074.60;;;22.10
69590;BMP180;56792;50.644;17.984;2023-08-31T08:12:25;99079.00;;;22.20
69590;BMP180;56792;50.644;17.984;2023-08-31T08:14:57;99087.00;;;22.40
69590;BMP180;56792;50.644;17.984;2023-08-31T08:17:28;99088.20;;;22.50
69590;BMP180;56792;50.644;17.984;2023-08-31T08:19:59;99090.20;;;22.50
69590;BMP180;56792;50.644;17.984;2023-08-31T08:22:30;99095.40;;;22.40
69590;BMP180;56792;50.644;17.984;2023-08-31T08:25:01;99100.60;;;22.30
69590;BMP180;56792;50.644;17.984;2023-08-31T08:27:32;99101.00;;;22.10
69590;BMP180;56792;50.644;17.984;2023-08-31T08:30:06;99103.80;;;22.18
69590;BMP180;56792;50.644;17.984;2023-08-31T08:32:37;99107.00;;;22.10
69590;BMP180;56792;50.644;17.984;2023-08-31T08:35:09;99118.00;;;21.94
69590;BMP180;56792;50.644;17.984;2023-08-31T08:37:41;99119.60;;;21.74
69590;BMP180;56792;50.644;17.984;2023-08-31T08:40:13;99117.20;;;21.52
69590;BMP180;56792;50.644;17.984;2023-08-31T08:42:48;99113.80;;;21.50
69590;BMP180;56792;50.644;17.984;2023-08-31T08:45:23;99122.40;;;21.70
69590;BMP180;56792;50.644;17.984;2023-08-31T08:47:55;99133.00;;;21.98
69590;BMP180;56792;50.644;17.984;2023-08-31T08:50:27;99132.00;;;22.36
69590;BMP180;56792;50.644;17.984;2023-08-31T08:53:02;99144.40;;;22.70
69590;BMP180;56792;50.644;17.984;2023-08-31T08:55:34;99142.20;;;22.90
69590;BMP180;56792;50.644;17.984;2023-08-31T08:58:05;99138.80;;;23.20
69590;BMP180;56792;50.644;17.984;2023-08-31T09:00:37;99146.00;;;23.30
69590;BMP180;56792;50.644;17.984;2023-08-31T09:03:10;99139.80;;;23.06
69590;BMP180;56792;50.644;17.984;2023-08-31T09:05:41;99143.80;;;22.66
69590;BMP180;56792;50.644;17.984;2023-08-31T09:08:13;99144.80;;;22.34
69590;BMP180;56792;50.644;17.984;2023-08-31T09:10:45;99149.00;;;22.30
69590;BMP180;56792;50.644;17.984;2023-08-31T09:13:18;99144.40;;;22.30
69590;BMP180;56792;50.644;17.984;2023-08-31T09:15:50;99142.00;;;22.68
69590;BMP180;56792;50.644;17.984;2023-08-31T09:18:26;99138.20;;;23.04
69590;BMP180;56792;50.644;17.984;2023-08-31T09:20:59;99137.00;;;23.60
69590;BMP180;56792;50.644;17.984;2023-08-31T09:23:30;99137.00;;;23.70
69590;BMP180;56792;50.644;17.984;2023-08-31T09:26:02;99140.00;;;23.60
69590;BMP180;56792;50.644;17.984;2023-08-31T09:28:35;99140.80;;;23.80
69590;BMP180;56792;50.644;17.984;2023-08-31T09:31:11;99143.20;;;24.40
69590;BMP180;56792;50.644;17.984;2023-08-31T09:33:52;99142.80;;;24.54
69590;BMP180;56792;50.644;17.984;2023-08-31T09:36:24;99149.00;;;24.46
69590;BMP180;56792;50.644;17.984;2023-08-31T09:39:00;99153.20;;;24.18
69590;BMP180;56792;50.644;17.984;2023-08-31T09:41:32;99157.40;;;23.58
69590;BMP180;56792;50.644;17.984;2023-08-31T09:44:18;99160.20;;;23.20
69590;BMP180;56792;50.644;17.984;2023-08-31T09:46:50;99162.20;;;23.48
69590;BMP180;56792;50.644;17.984;2023-08-31T09:49:22;99164.20;;;24.58
69590;BMP180;56792;50.644;17.984;2023-08-31T09:51:55;99163.00;;;24.00
69590;BMP180;56792;50.644;17.984;2023-08-31T09:54:28;99159.60;;;23.46
69590;BMP180;56792;50.644;17.984;2023-08-31T09:57:02;99161.80;;;23.30
69590;BMP180;56792;50.644;17.984;2023-08-31T09:59:34;99162.80;;;23.30
69590;BMP180;56792;50.644;17.984;2023-08-31T10:02:06;99166.60;;;23.34
69590;BMP180;56792;50.644;17.984;2023-08-31T10:04:38;99161.40;;;25.54
69590;BMP180;56792;50.644;17.984;2023-08-31T10:07:12;99165.80;;;27.32
69590;BMP180;56792;50.644;17.984;2023-08-31T10:09:44;99174.40;;;28.62
69590;BMP180;56792;50.644;17.984;2023-08-31T10:12:17;99172.80;;;28.70
69590;BMP180;56792;50.644;17.984;2023-08-31T10:14:50;99177.20;;;29.46
69590;BMP180;56792;50.644;17.984;2023-08-31T10:17:23;99176.40;;;30.30
69590;BMP180;56792;50.644;17.984;2023-08-31T10:19:55;99181.00;;;28.86
69590;BMP180;56792;50.644;17.984;2023-08-31T10:22:26;99181.20;;;28.44
69590;BMP180;56792;50.644;17.984;2023-08-31T10:25:02;99189.00;;;28.12
69590;BMP180;56792;50.644;17.984;2023-08-31T10:27:39;99196.40;;;27.50
69590;BMP180;56792;50.644;17.984;2023-08-31T10:30:26;99195.60;;;26.76
69590;BMP180;56792;50.644;17.984;2023-08-31T10:33:23;99195.60;;;26.30
69590;BMP180;56792;50.644;17.984;2023-08-31T10:35:56;99200.80;;;26.00
69590;BMP180;56792;50.644;17.984;2023-08-31T10:38:29;99205.00;;;25.60
69590;BMP180;56792;50.644;17.984;2023-08-31T10:41:19;99207.40;;;25.20
69590;BMP180;56792;50.644;17.984;2023-08-31T10:43:52;99214.80;;;25.00
69590;BMP180;56792;50.644;17.984;2023-08-31T10:46:32;99214.60;;;24.50
69590;BMP180;56792;50.644;17.984;2023-08-31T10:49:14;99217.60;;;24.06
69590;BMP180;56792;50.644;17.984;2023-08-31T10:51:48;99227.60;;;23.86
69590;BMP180;56792;50.644;17.984;2023-08-31T10:54:25;99232.40;;;23.50
69590;BMP180;56792;50.644;17.984;2023-08-31T10:57:06;99232.40;;;23.10
69590;BMP180;56792;50.644;17.984;2023-08-31T10:59:54;99230.00;;;22.70
69590;BMP180;56792;50.644;17.984;2023-08-31T11:02:35;99237.80;;;22.40
69590;BMP180;56792;50.644;17.984;2023-08-31T11:05:11;99236.60;;;22.10
69590;BMP180;56792;50.644;17.984;2023-08-31T11:07:45;99238.00;;;21.70
69590;BMP180;56792;50.644;17.984;2023-08-31T11:10:18;99239.40;;;21.50
69590;BMP180;56792;50.644;17.984;2023-08-31T11:12:52;99236.80;;;21.40
69590;BMP180;56792;50.644;17.984;2023-08-31T11:15:25;99242.80;;;21.40
69590;BMP180;56792;50.644;17.984;2023-08-31T11:17:57;99240.40;;;22.20
69590;BMP180;56792;50.644;17.984;2023-08-31T11:20:31;99241.40;;;23.50
69590;BMP180;56792;50.644;17.984;2023-08-31T11:23:04;99245.00;;;23.32
69590;BMP180;56792;50.644;17.984;2023-08-31T11:25:35;99247.80;;;23.10
69590;BMP180;56792;50.644;17.984;2023-08-31T11:28:08;99247.20;;;22.70
69590;BMP180;56792;50.644;17.984;2023-08-31T11:30:40;99248.00;;;22.24
69590;BMP180;56792;50.644;17.984;2023-08-31T11:33:14;99242.60;;;21.88
69590;BMP180;56792;50.644;17.984;2023-08-31T11:35:46;99245.40;;;21.60
69590;BMP180;56792;50.644;17.984;2023-08-31T11:38:17;99240.60;;;21.40
69590;BMP180;56792;50.644;17.984;2023-08-31T11:40:50;99244.20;;;21.12
69590;BMP180;56792;50.644;17.984;2023-08-31T11:43:22;99243.20;;;21.00
69590;BMP180;56792;50.644;17.984;2023-08-31T11:45:53;99247.20;;;20.90
69590;BMP180;56792;50.644;17.984;2023-08-31T11:48:25;99247.60;;;20.78
69590;BMP180;56792;50.644;17.984;2023-08-31T11:50:56;99247.00;;;20.60
69590;BMP180;56792;50.644;17.984;2023-08-31T11:53:29;99246.20;;;20.60
69590;BMP180;56792;50.644;17.984;2023-08-31T11:56:03;99247.60;;;20.52
69590;BMP180;56792;50.644;17.984;2023-08-31T11:58:34;99240.60;;;20.66
69590;BMP180;56792;50.644;17.984;2023-08-31T12:01:10;99241.20;;;20.96
69590;BMP180;56792;50.644;17.984;2023-08-31T12:03:48;99238.80;;;21.10
69590;BMP180;56792;50.644;17.984;2023-08-31T12:06:19;99241.00;;;21.26
69590;BMP180;56792;50.644;17.984;2023-08-31T12:08:51;99241.20;;;21.54
69590;BMP180;56792;50.644;17.984;2023-08-31T12:11:24;99222.40;;;22.86
69590;BMP180;56792;50.644;17.984;2023-08-31T12:13:56;99228.60;;;26.46
69590;BMP180;56792;50.644;17.984;2023-08-31T12:16:36;99230.20;;;29.66
69590;BMP180;56792;50.644;17.984;2023-08-31T12:19:07;99229.20;;;32.58
69590;BMP180;56792;50.644;17.984;2023-08-31T12:21:41;99220.40;;;34.76
69590;BMP180;56792;50.644;17.984;2023-08-31T12:24:13;99220.40;;;36.62
69590;BMP180;56792;50.644;17.984;2023-08-31T12:26:46;99220.00;;;38.08
69590;BMP180;56792;50.644;17.984;2023-08-31T12:29:18;99224.00;;;39.34
69590;BMP180;56792;50.644;17.984;2023-08-31T12:31:49;99228.60;;;40.00
69590;BMP180;56792;50.644;17.984;2023-08-31T12:34:20;99228.60;;;41.20
69590;BMP180;56792;50.644;17.984;2023-08-31T12:36:51;99232.20;;;42.16
69590;BMP180;56792;50.644;17.984;2023-08-31T12:39:22;99236.40;;;42.50
69590;BMP180;56792;50.644;17.984;2023-08-31T12:41:53;99239.80;;;43.14
69590;BMP180;56792;50.644;17.984;2023-08-31T12:44:24;99238.80;;;43.60
69590;BMP180;56792;50.644;17.984;2023-08-31T12:46:55;99241.40;;;43.60
69590;BMP180;56792;50.644;17.984;2023-08-31T12:49:26;99243.00;;;43.70
69590;BMP180;56792;50.644;17.984;2023-08-31T12:51:57;99248.40;;;43.84
69590;BMP180;56792;50.644;17.984;2023-08-31T12:54:28;99250.40;;;44.36
69590;BMP180;56792;50.644;17.984;2023-08-31T12:56:59;99257.20;;;44.50
69590;BMP180;56792;50.644;17.984;2023-08-31T12:59:30;99254.60;;;44.40
69590;BMP180;56792;50.644;17.984;2023-08-31T13:02:01;99254.80;;;44.64
69590;BMP180;56792;50.644;17.984;2023-08-31T13:04:33;99260.80;;;44.74
69590;BMP180;56792;50.644;17.984;2023-08-31T13:07:05;99268.80;;;45.10
69590;BMP180;56792;50.644;17.984;2023-08-31T13:09:36;99266.00;;;45.10
69590;BMP180;56792;50.644;17.984;2023-08-31T13:12:08;99269.20;;;45.52
69590;BMP180;56792;50.644;17.984;2023-08-31T13:14:39;99276.00;;;45.86
69590;BMP180;56792;50.644;17.984;2023-08-31T13:17:10;99275.40;;;46.10
69590;BMP180;56792;50.644;17.984;2023-08-31T13:19:41;99277.20;;;44.40
69590;BMP180;56792;50.644;17.984;2023-08-31T13:22:12;99279.00;;;44.76
69590;BMP180;56792;50.644;17.984;2023-08-31T13:24:45;99285.80;;;45.20
69590;BMP180;56792;50.644;17.984;2023-08-31T13:27:16;99291.40;;;42.54
69590;BMP180;56792;50.644;17.984;2023-08-31T13:29:47;99289.00;;;40.12
69590;BMP180;56792;50.644;17.984;2023-08-31T13:32:18;99296.00;;;38.52
69590;BMP180;56792;50.644;17.984;2023-08-31T13:34:49;99305.20;;;37.74
69590;BMP180;56792;50.644;17.984;2023-08-31T13:37:20;99302.60;;;36.32
69590;BMP180;56792;50.644;17.984;2023-08-31T13:39:53;99298.80;;;34.62
69590;BMP180;56792;50.644;17.984;2023-08-31T13:42:24;99310.20;;;33.22
69590;BMP180;56792;50.644;17.984;2023-08-31T13:44:55;99309.80;;;31.96
69590;BMP180;56792;50.644;17.984;2023-08-31T13:47:26;99314.60;;;30.58
69590;BMP180;56792;50.644;17.984;2023-08-31T13:49:58;99312.60;;;29.58
69590;BMP180;56792;50.644;17.984;2023-08-31T13:52:29;99307.60;;;29.40
69590;BMP180;56792;50.644;17.984;2023-08-31T13:55:00;99304.20;;;29.14
69590;BMP180;56792;50.644;17.984;2023-08-31T13:57:31;99308.00;;;28.74
69590;BMP180;56792;50.644;17.984;2023-08-31T14:00:02;99297.00;;;28.50
69590;BMP180;56792;50.644;17.984;2023-08-31T14:02:39;99301.60;;;28.50
69590;BMP180;56792;50.644;17.984;2023-08-31T14:05:11;99308.40;;;28.50
69590;BMP180;56792;50.644;17.984;2023-08-31T14:07:42;99312.80;;;28.00
69590;BMP180;56792;50.644;17.984;2023-08-31T14:10:13;99309.00;;;27.50
69590;BMP180;56792;50.644;17.984;2023-08-31T14:12:47;99307.40;;;27.10
69590;BMP180;56792;50.644;17.984;2023-08-31T14:15:19;99308.80;;;27.00
69590;BMP180;56792;50.644;17.984;2023-08-31T14:17:52;99302.80;;;26.78
69590;BMP180;56792;50.644;17.984;2023-08-31T14:20:24;99304.60;;;26.40
69590;BMP180;56792;50.644;17.984;2023-08-31T14:22:55;99299.80;;;26.30
69590;BMP180;56792;50.644;17.984;2023-08-31T14:25:26;99301.40;;;26.10